Thessalon, Ontario

12:29 PM EST on December 04, 2016 (GMT -0500)
Lafarge Smelter Bay Dock | | Change Station

Elev 581 ft 46.25 °N, 83.54 °W | Updated 9 days ago

Light Snow
Light Snow Mist
32.7 °F
Feels Like 32.7 °F
N
2.9
Wind Variable Wind from North
Gusts 5.0 mph

Today
High -- | Low -- °F
--% Chance of Precip.
Yesterday
High -- | Low -- °F
Precip. -- in
Pressure 30.11 in
Visibility 2.0 miles
Clouds Overcast 1100 ft
Dew Point 30.7 °F
Humidity 92%
Rainfall in
Snow Depth Not available.
8:00 AM 4:48 PM
Waxing Crescent, 24% visible
SPECI KANJ 041725Z AUTO 11007KT 2SM -SN BR OVC011 01/M02 A3011 RMK AO2 VIS 1 1/4V4 SNB14 P0000 T00061017
Pressure 30.11 in
Visibility 2.0 miles
Clouds Overcast 1100 ft
Dew Point 30.7 °F
Humidity 92%
Rainfall in
Snow Depth Not available.
8:00 AM 4:48 PM
Waxing Crescent, 24% visible
SPECI KANJ 041725Z AUTO 11007KT 2SM -SN BR OVC011 01/M02 A3011 RMK AO2 VIS 1 1/4V4 SNB14 P0000 T00061017

10-Day Weather Forecast

Almanac

Astronomy

Dec. 04, 2016 Rise Set
Actual Time
Civil Twilight
Nautical Twilight
Astronomical Twilight
Moon
Length of Visible Light
Length of Day
Tomorrow will be .
, % of the Moon is Illuminated

Today's Extremes

Country Highs Country Lows

Community

WunderPhotos

Upload Photos

1,955,630 photos uploaded!

WunderBlog® & News

Nearby

Air Quality

  Air Quality AQ Index Pollutant
Not available.

Snow Depth

Station Depth Elevation

Earthquake Activity

City Distance Mag. Time & Date
Minimum magnitude displayed is 2.5.

Coastal Water Temperatures

Place Temperature

Stations

Nearby Weather Stations

Station Location Temp. Windchill Dew Point Humidity Wind Precip. Elev Updated Type
                   

Watches & Warnings

There are currently no watches in effect.